»·PEaware :: UAL2038 KPDX-KGEG

UAL2038 :: KPDX-KGEG

FLIGHT INFORMATION

Flight Status: Arrived
Operator:
United Airlines
More flights by this operator :: More flights under this callsign
Pilot: Maximilliano F. (23467)
Aircraft: BOEING 737-800
(B738)
More flights by this aircraft type
Origin: KPDX Portland Intl
United States
Destination: KGEG Spokane Intl
United States
More flights between these airports :: More routes between these airports
Route: +PTLD1 BTG PAPPS ZOOMR ZOOMR1
File this flight plan on PilotEdge
Remarks: RMK / SIMBRIEF
Altitude:
(Current/Filed)
35,000ft
Speed:
(Current/Filed)
454kts
Departed: 13-Oct-19 03:55 PM
Arrived: 13-Oct-19 04:47 PM
Distance/Time
Traveled:
242nm/0:51
Distance/Time
To Go:
Arrived

Flight Plot

Page will automatically refresh every two minutes.

Flight plan parsing failed; only flown route is shown


Map Options




Map Legend


Flown Route
Filed Route
Departure Airport
Arrival Airport
Navaid (VOR, NDB)
Fix

Horizontal Profiles

Position Reports

Time Latitude Longitude Heading Altitude Ground
Speed
13-Oct-19 15:22 45.589878 -122.590534 224 30ft 0kts
13-Oct-19 15:23 45.589878 -122.590534 224 30ft 0kts
13-Oct-19 15:24 45.589878 -122.590534 224 30ft 0kts
13-Oct-19 15:25 45.589878 -122.590534 224 30ft 0kts
13-Oct-19 15:26 45.589878 -122.590534 224 30ft 0kts
13-Oct-19 15:27 45.589878 -122.590534 224 30ft 0kts
13-Oct-19 15:28 45.589878 -122.590534 224 30ft 0kts
13-Oct-19 15:29 45.589878 -122.590534 224 30ft 0kts
13-Oct-19 15:30 45.589878 -122.590534 224 30ft 0kts
13-Oct-19 15:31 45.589878 -122.590534 224 30ft 0kts
13-Oct-19 15:32 45.589878 -122.590534 224 30ft 0kts
13-Oct-19 15:33 45.589878 -122.590534 224 30ft 0kts
13-Oct-19 15:34 45.589878 -122.590534 224 30ft 0kts
13-Oct-19 15:35 45.589878 -122.590534 224 30ft 0kts
13-Oct-19 15:36 45.589878 -122.590534 224 30ft 0kts
13-Oct-19 15:37 45.589878 -122.590534 224 30ft 0kts
13-Oct-19 15:38 45.589878 -122.590534 224 30ft 0kts
13-Oct-19 15:39 45.589878 -122.590534 224 30ft 0kts
13-Oct-19 15:40 45.589878 -122.590534 224 30ft 0kts
13-Oct-19 15:41 45.589878 -122.590534 224 30ft 0kts
13-Oct-19 15:42 45.589878 -122.590534 224 30ft 0kts
13-Oct-19 15:43 45.589878 -122.590534 224 30ft 0kts
13-Oct-19 15:44 45.589878 -122.590534 224 30ft 0kts
13-Oct-19 15:45 45.590276 -122.589985 224 30ft 2kts
13-Oct-19 15:46 45.590366 -122.589607 301 30ft 0kts
13-Oct-19 15:47 45.590366 -122.589607 301 29ft 0kts
13-Oct-19 15:48 45.590395 -122.589674 301 30ft 3kts
13-Oct-19 15:49 45.591575 -122.592711 298 29ft 11kts
13-Oct-19 15:50 45.593578 -122.597815 311 30ft 12kts
13-Oct-19 15:52 45.594396 -122.597540 44 29ft 0kts
13-Oct-19 15:53 45.594396 -122.597540 44 29ft 0kts
13-Oct-19 15:54 45.594839 -122.596327 88 30ft 10kts
13-Oct-19 15:55 45.583565 -122.566622 117 173ft 196kts
13-Oct-19 15:56 45.554916 -122.491027 118 2941ft 251kts
13-Oct-19 15:57 45.520731 -122.397575 118 6572ft 277kts
13-Oct-19 15:58 45.484101 -122.297751 118 6999ft 283kts
13-Oct-19 15:59 45.453948 -122.193520 80 8346ft 300kts
13-Oct-19 16:00 45.519069 -122.161796 316 11130ft 313kts
13-Oct-19 16:01 45.574348 -122.260461 305 14567ft 329kts
13-Oct-19 16:02 45.630766 -122.367701 305 17617ft 344kts
13-Oct-19 16:03 45.700896 -122.460072 351 20471ft 373kts
13-Oct-19 16:04 45.790840 -122.384606 52 22938ft 410kts
13-Oct-19 16:05 45.842447 -122.235391 67 25484ft 426kts
13-Oct-19 16:06 45.885235 -122.073901 67 27839ft 439kts
13-Oct-19 16:07 45.928847 -121.907232 66 30055ft 451kts
13-Oct-19 16:08 45.972142 -121.740339 61 32926ft 438kts
13-Oct-19 16:09 46.014500 -121.576310 61 34964ft 438kts
13-Oct-19 16:10 46.057571 -121.408215 61 35039ft 447kts
13-Oct-19 16:10 46.093030 -121.268890 62 35034ft 449kts
13-Oct-19 16:12 46.141206 -121.078148 61 35009ft 446kts
13-Oct-19 16:13 46.183523 -120.909380 61 34969ft 446kts
13-Oct-19 16:13 46.218388 -120.769303 61 34970ft 446kts
13-Oct-19 16:14 46.259899 -120.601421 61 34968ft 443kts
13-Oct-19 16:15 46.301067 -120.433718 61 34969ft 442kts
13-Oct-19 16:17 46.348336 -120.239613 62 34964ft 443kts
13-Oct-19 16:17 46.382028 -120.100132 62 34969ft 440kts
13-Oct-19 16:18 46.422356 -119.932164 63 34974ft 444kts
13-Oct-19 16:20 46.498815 -119.767690 38 34973ft 420kts
13-Oct-19 16:20 46.566021 -119.664987 38 34974ft 423kts
13-Oct-19 16:21 46.647067 -119.540200 39 34972ft 426kts
13-Oct-19 16:22 46.728492 -119.414258 39 34972ft 430kts
13-Oct-19 16:23 46.808002 -119.290559 39 33761ft 423kts
13-Oct-19 16:24 46.888619 -119.164821 40 30500ft 432kts
13-Oct-19 16:25 46.970406 -119.036490 41 28458ft 430kts
13-Oct-19 16:26 47.051369 -118.908862 42 26522ft 428kts
13-Oct-19 16:27 47.132362 -118.780580 43 24685ft 425kts
13-Oct-19 16:28 47.212081 -118.653685 44 23012ft 419kts
13-Oct-19 16:29 47.290160 -118.528805 44 21475ft 411kts
13-Oct-19 16:30 47.366683 -118.405841 44 20004ft 402kts
13-Oct-19 16:31 47.429177 -118.275701 66 18247ft 394kts
13-Oct-19 16:32 47.463769 -118.125147 73 15848ft 380kts
13-Oct-19 16:33 47.511698 -117.991231 54 13491ft 364kts
13-Oct-19 16:34 47.567638 -117.869417 54 11258ft 349kts
13-Oct-19 16:35 47.619872 -117.757480 54 10000ft 309kts
13-Oct-19 16:36 47.666621 -117.658895 54 8807ft 280kts
13-Oct-19 16:37 47.711365 -117.565706 53 7202ft 272kts
13-Oct-19 16:38 47.753381 -117.478420 53 6131ft 246kts
13-Oct-19 16:39 47.791612 -117.399071 53 5063ft 229kts
13-Oct-19 16:40 47.816204 -117.316713 119 5040ft 221kts
13-Oct-19 16:41 47.768771 -117.308637 225 5022ft 200kts
13-Oct-19 16:42 47.732757 -117.364614 226 4999ft 178kts
13-Oct-19 16:43 47.697893 -117.417517 225 4291ft 174kts
13-Oct-19 16:44 47.664391 -117.468186 226 3333ft 157kts
13-Oct-19 16:45 47.633891 -117.514291 226 2493ft 155kts
13-Oct-19 16:46 47.619985 -117.537735 259 2390ft 8kts
13-Oct-19 16:47 47.620232 -117.538715 345 2391ft 1kts
13-Oct-19 16:48 47.621833 -117.537029 338 2391ft 8kts
13-Oct-19 16:49 47.623460 -117.537361 345 2391ft 3kts
13-Oct-19 16:50 47.623966 -117.536990 69 2391ft 0kts
13-Oct-19 16:51 47.624027 -117.536791 65 2391ft 0kts
13-Oct-19 16:52 47.624073 -117.536653 64 2391ft 0kts
13-Oct-19 16:53 47.624073 -117.536653 64 2391ft 0kts

Navigation Log

Ident Type
Flight plan parsing failed, navigation log unavailable